Jogging des Voyages Léonard, Housse (Blegny) 07/03/2015 - 8 km
Mise à jour le : 07/03/2015 à 17:40
Classement définitif, aucune correction possible
Place Nom Prénom Dossard Temps Vitesse Allure Place. Cat. Catégorie
1 RENARD ARNAUD 801 27:33 17,41 3:26 1 Séniors
2 MICHEL LUC 1 28:09 17,04 3:31 2 Séniors
3 SCHYNS NICOLAS 739 28:51 16,63 3:36 3 Séniors
4 ROCK NICOLAS 789 30:09 15,92 3:46 4 Séniors
5 WEBER CLEMENT 826 30:10 15,91 3:46 5 Séniors
6 HERZET FREDERICK 4 30:11 15,90 3:46 6 Séniors
7 LOGNOUL FABIEN 809 30:14 15,87 3:46 1 Vétérans 1
8 CHERKAOUI MAJID 945 30:25 15,78 3:48 7 Séniors
9 HENAUX STEPHANE 813 30:26 15,76 3:48 8 Séniors
10 LOPEZ-NAVA DIDIER 591 30:28 15,75 3:48 2 Vétérans 1
11 ESTEBEZ ANDRE 335 30:32 15,72 3:49 3 Vétérans 1
12 BERTRAND CYRIL 944 30:42 15,63 3:50 9 Séniors
13 BRONLET BENOIT 119 30:47 15,59 3:50 4 Vétérans 1
14 CLERDENT NICOLAS 161 30:49 15,57 3:51 10 Séniors
15 POHL DIDIER 702 30:51 15,55 3:51 1 Vétérans 2
16 DELCOUR PHILIPPE 190 30:55 15,52 3:51 5 Vétérans 1
17 WIERTZ XAVIER 780 31:00 15,48 3:52 11 Séniors
18 DARIMONT CHRISTOPHER 196 31:05 15,44 3:53 12 Séniors
19 BEUKEN SERGE 80 31:11 15,39 3:53 6 Vétérans 1
20 VERVIER ARNAUD 770 31:13 15,37 3:54 13 Séniors
21 CANISIUS PIERRE-OLIVIER 891 31:15 15,36 3:54 7 Vétérans 1
22 MICHEL SEBASTIEN 619 31:16 15,34 3:54 14 Séniors
23 KAILS REMY 505 31:21 15,31 3:55 15 Séniors
24 DUPUIS GAETAN 698 31:27 15,26 3:55 16 Séniors
25 LICATA GIOVANI 798 31:29 15,24 3:56 8 Vétérans 1
26 NOEL JULIEN 663 31:31 15,23 3:56 17 Séniors
27 RECKER MARCEL 805 31:32 15,22 3:56 2 Vétérans 2
28 VANHULST BENOIT 662 31:36 15,18 3:57 18 Séniors
29 EVRARD AMAURY 269 31:56 15,03 3:59 19 Séniors
30 HENDRICK CHRISTOPHER 817 32:00 14,99 4:00 20 Séniors
31 LODOMEZ OLIVIER 454 32:05 14,96 4:00 21 Séniors
32 JACOB JUSTIN 865 32:10 14,92 4:01 1 Espoirs Garçons
33 HECK MARC 345 32:11 14,91 4:01 9 Vétérans 1
34 BRUNEEL PHILIPPE 894 32:13 14,89 4:01 10 Vétérans 1
35 DOURCY QUENTIN 328 32:29 14,78 4:03 22 Séniors
36 GODELAINE STEPHANE 323 32:31 14,76 4:03 23 Séniors
37 JANDRAIN FRANCOIS 381 32:38 14,71 4:04 24 Séniors
38 KEYDENER CHRISTIAN 513 32:39 14,70 4:04 11 Vétérans 1
39 CORMAN XAVIER 178 32:47 14,63 4:05 25 Séniors
40 KEIL ALAIN 506 32:50 14,61 4:06 12 Vétérans 1
41 TOUSSAINT BERTRAND 964 32:54 14,59 4:06 26 Séniors
42 VANDENBORRE JULIEN 657 32:57 14,56 4:07 27 Séniors
43 TALBOT LUDOVIC 623 33:01 14,54 4:07 28 Séniors
44 D'AFFNAY JEAN-FRANCOIS 162 33:04 14,51 4:08 29 Séniors
45 BAAR GREGORY 49 33:05 14,50 4:08 30 Séniors
46 DEWIT CHRISTOPHE 957 33:10 14,47 4:08 13 Vétérans 1
47 SNOECK CLAUDE 871 33:11 14,46 4:08 31 Séniors
48 SEVRIN FREDERIC 920 33:14 14,44 4:09 32 Séniors
49 D'ACQUISTO ALEX 947 33:18 14,41 4:09 33 Séniors
50 LEMAIRE GUILLAUME 441 33:21 14,39 4:10 34 Séniors
51 JACQUEMOTTE LUDOVIC 375 33:22 14,38 4:10 35 Séniors
52 PIELA RUDY 537 33:24 14,37 4:10 36 Séniors
53 MACHIELS JULIEN 816 33:26 14,36 4:10 37 Séniors
54 VAN BRUMMELEN CLEMENT 904 33:27 14,34 4:10 2 Espoirs Garçons
55 XHONNEUX RENAUD 840 33:30 14,33 4:11 38 Séniors
56 NAWYN BENJAMIN 5 33:33 14,30 4:11 14 Vétérans 1
57 CABAY JEAN-MARC 908 33:37 14,28 4:12 15 Vétérans 1
58 AUTUNNO ANTOINE 936 33:40 14,25 4:12 39 Séniors
59 VANDEN BULCK BERTRAND 766 33:49 14,19 4:13 40 Séniors
60 VERHEES CEDRIC 956 33:54 14,15 4:14 16 Vétérans 1
61 BOGAERT CHARLY 94 33:56 14,14 4:14 3 Vétérans 2
62 DAMBLON PATRICK 167 33:59 14,12 4:14 17 Vétérans 1
63 WOOLF ALAN 695 34:16 14,00 4:17 4 Vétérans 2
64 DEHON ARNAUD 212 34:24 13,95 4:18 41 Séniors
65 STEINBUSCH VINCENT 620 34:27 13,93 4:18 18 Vétérans 1
66 STICCA TIBERIO 444 34:32 13,89 4:19 42 Séniors
67 WEICKMANS DAVID 684 34:35 13,87 4:19 43 Séniors
68 PIRENNE DAVID 539 34:43 13,82 4:20 19 Vétérans 1
69 NOIRHOMME PIERRE 667 34:45 13,81 4:20 44 Séniors
70 DONNEAU PIERRE 315 34:47 13,80 4:20 45 Séniors
71 DEGRERE OLIVIER 847 34:54 13,75 4:21 20 Vétérans 1
72 THEUNISSEN LUC 881 34:56 13,74 4:22 46 Séniors
73 PESSER ALINE 11 34:58 13,73 4:22 1 Ainées 1
74 DETHIER ALAIN 807 35:00 13,71 4:22 5 Vétérans 2
75 ELOYE JONATHAN 261 35:02 13,70 4:22 47 Séniors
76 BROUWIER PIERRE 121 35:03 13,69 4:22 1 Vétérans 3
77 TAMBURRINI RAPHAEL 754 35:06 13,67 4:23 21 Vétérans 1
78 DESSOUROUX JEAN 227 35:08 13,66 4:23 2 Vétérans 3
79 POLIS GREGORY 549 35:20 13,58 4:25 48 Séniors
80 COLSON DAVID 148 35:21 13,58 4:25 49 Séniors
81 VAN TOMME YVES 806 35:23 13,56 4:25 6 Vétérans 2
82 LECLERCQ JORDAN 429 35:25 13,55 4:25 50 Séniors
83 DENGIS GREGORY 976 35:35 13,48 4:26 51 Séniors
84 JASPAR CHRISTIAN 383 35:43 13,44 4:27 3 Vétérans 3
85 JORISSEN PHILIPPE 942 35:44 13,43 4:28 22 Vétérans 1
86 LAPAILLE DANIEL 536 35:49 13,40 4:28 23 Vétérans 1
87 HALLEUX JEAN MARIE 337 36:03 13,31 4:30 24 Vétérans 1
88 BRIDDA JOREL 930 36:07 13,29 4:30 52 Séniors
89 DEVILLERS ALAIN 282 36:09 13,27 4:31 7 Vétérans 2
90 MINGUET PIERRE-YVES 933 36:11 13,26 4:31 25 Vétérans 1
91 DE RIDDER OLIVIER 174 36:13 13,25 4:31 53 Séniors
92 HEUSSCHEN DOMINIQUE 359 36:15 13,24 4:31 8 Vétérans 2
93 RANDAXHE ARNAUD 707 36:16 13,23 4:32 3 Espoirs Garçons
94 SCHAUS JEROME 594 36:20 13,21 4:32 54 Séniors
95 CANALES ALBERTO 130 36:23 13,19 4:32 4 Vétérans 3
96 WIERTZ ARNAUD 779 36:24 13,18 4:33 55 Séniors
97 MARECHAL DAVID 479 36:25 13,18 4:33 56 Séniors
98 BROERS JEAN PAUL 923 36:28 13,16 4:33 57 Séniors
99 HERMANS MARC 833 36:29 13,15 4:33 9 Vétérans 2
100 JAEGERS FABRICE 905 36:31 13,14 4:33 58 Séniors
101 ROMPEN MARGAUX 727 36:32 13,14 4:34 1 Espoirs Filles
102 DEVILLE MICHEL 234 36:34 13,12 4:34 10 Vétérans 2
103 NIX RAPHAEL 520 36:37 13,11 4:34 59 Séniors
104 DELNEUVILLE ERIC 200 36:38 13,10 4:34 26 Vétérans 1
105 COOLEN LAURENT 700 36:40 13,09 4:35 60 Séniors
106 KEYDENER ARNAUD 403 36:42 13,08 4:35 61 Séniors
107 AGNOLI PIERRE 40 36:44 13,07 4:35 62 Séniors
108 WAUCOMONT BENOÎT 909 36:48 13,04 4:36 63 Séniors
109 LOESENBORGH FRANCOIS 830 37:02 12,96 4:37 27 Vétérans 1
110 WERTZ FLORENT 685 37:06 12,93 4:38 4 Espoirs Garçons
111 FROIDMONT DANIELLE 861 37:08 12,92 4:38 1 Ainées 2
112 ROSIER SEBASTIEN 954 37:11 12,91 4:38 64 Séniors
113 VANWERST LUCAS 827 37:14 12,89 4:39 5 Espoirs Garçons
114 JUNKER HENRY-MARC 397 37:22 12,84 4:40 5 Vétérans 3
115 DEJONG ANTHONY 875 37:24 12,83 4:40 6 Espoirs Garçons
116 CAMPIONE MICHAEL 136 37:35 12,77 4:41 65 Séniors
117 MICHEL JEAN MARC 818 37:41 12,73 4:42 11 Vétérans 2
118 KEIL YVES 509 37:47 12,70 4:43 28 Vétérans 1
119 ANGE PHILIPPE 889 37:49 12,69 4:43 66 Séniors
120 DEBIOLLE FREDERIC 206 37:52 12,67 4:44 67 Séniors
121 HERMANN BENJAMIN 448 37:58 12,64 4:44 68 Séniors
122 BISSOT CLEMENT 981 38:02 12,62 4:45 69 Séniors
123 ROBINET DANY 577 38:05 12,60 4:45 70 Séniors
124 DEMOULIN ANNE-SOPHIE 251 38:09 12,58 4:46 2 Ainées 1
125 JOWAY ERIC 393 38:10 12,57 4:46 12 Vétérans 2
126 JUDONG PHILIPPE 394 38:12 12,56 4:46 29 Vétérans 1
127 HEUSSCHEN CHRISTINE 819 38:13 12,56 4:46 2 Ainées 2
128 VIOLLE BENJAMIN 772 38:14 12,55 4:46 71 Séniors
129 NYSSEN PIERRE 723 38:16 12,54 4:47 30 Vétérans 1
130 FONTAINE GREGORY 850 38:20 12,52 4:47 72 Séniors
131 JOURDAN GUY 503 38:21 12,51 4:47 73 Séniors
132 DEMONCEAU HENRI 215 38:32 12,46 4:49 13 Vétérans 2
133 WADELEUX RAPHAEL 775 38:38 12,42 4:49 74 Séniors
134 VAN CALSTER GEOFFREY 922 38:42 12,40 4:50 75 Séniors
135 COBBEN SYLVAIN 165 38:46 12,38 4:50 76 Séniors
136 GOBLET LUC 968 38:51 12,35 4:51 31 Vétérans 1
137 SOMJA JEAN PHILIPPE 613 38:53 12,34 4:51 77 Séniors
138 CARL ROGER 828 39:01 12,30 4:52 6 Vétérans 3
139 KILESSE REMI 404 39:06 12,27 4:53 78 Séniors
140 DEMONCEAU NATHALIE 900 39:10 12,25 4:53 3 Ainées 1
141 CRASSON VINCENT 812 39:12 12,24 4:54 14 Vétérans 2
142 JENNES LOIC 500 39:14 12,23 4:54 79 Séniors
143 CHARLIER MANUEL 961 39:19 12,21 4:54 32 Vétérans 1
144 HENNES PHILIPPE 181 39:25 12,18 4:55 33 Vétérans 1
145 VERDIN FRED 885 39:28 12,16 4:56 80 Séniors
146 BAIWIR ANTHONY 57 39:29 12,15 4:56 81 Séniors
147 TERF MICHEL 755 39:31 12,15 4:56 15 Vétérans 2
148 VAN BRACKEL JEAN MARC 860 39:32 12,14 4:56 16 Vétérans 2
149 GIANOTTI DOMINIQUE 841 39:34 12,13 4:56 17 Vétérans 2
150 WINTGENS MARLENE 784 39:40 12,10 4:57 1 Dames
151 VOSS JEAN-LOUIS 673 39:41 12,09 4:57 7 Vétérans 3
152 OUADNOUNI SOFIAN 711 39:43 12,08 4:57 7 Espoirs Garçons
153 LESECQUE STEPHANE 967 39:46 12,07 4:58 18 Vétérans 2
154 JENNES JEAN-FRANCOIS 498 39:48 12,06 4:58 82 Séniors
155 HEUSCH VINCENT 357 39:49 12,05 4:58 34 Vétérans 1
156 HEINRICHS GREGORY 346 39:51 12,05 4:58 83 Séniors
157 LAMBION LOIC 984 39:52 12,04 4:59 84 Séniors
158 LORQUET SARAH 462 39:55 12,02 4:59 2 Dames
159 GOMZE MICHEL 272 39:58 12,01 4:59 35 Vétérans 1
160 HARDY MARC 437 39:59 12,00 4:59 36 Vétérans 1
161 OUADNOUNI M BAREK 529 40:03 11,98 5:00 37 Vétérans 1
162 FAVEYTS JEAN MARC 852 40:05 11,97 5:00 19 Vétérans 2
163 SABEL ED 808 40:07 11,97 5:00 20 Vétérans 2
164 DEMOL CINDY 211 40:10 11,95 5:01 4 Ainées 1
165 BURGERS ERIC 123 40:10 11,95 5:01 38 Vétérans 1
166 ZAMBUTO THOMAS 927 40:12 11,94 5:01 85 Séniors
167 DEGUELDRE VINCENT 186 40:13 11,93 5:01 86 Séniors
168 SIEMES JASON 985 40:17 11,91 5:02 87 Séniors
169 LECLERCQ FABIEN 843 40:20 11,90 5:02 88 Séniors
170 MANSET ADELINE 474 40:21 11,89 5:02 3 Dames
171 LEMARCOTTE JOHNNY 443 40:22 11,89 5:02 39 Vétérans 1
172 HOCK MICHAEL 468 40:24 11,88 5:03 89 Séniors
173 LAMBERT MICHAEL 849 40:26 11,87 5:03 90 Séniors
174 BRANCE JOSE 103 40:27 11,86 5:03 40 Vétérans 1
175 SICIM MUSTAFA 953 40:29 11,86 5:03 41 Vétérans 1
176 BYLEVELD AURORE 126 40:30 11,85 5:03 4 Dames
177 DERWAEL ALAIN 870 40:31 11,84 5:03 42 Vétérans 1
178 RENOTTE CHRISTIAN 952 40:33 11,84 5:04 91 Séniors
179 BAYONNET JULIEN 966 40:34 11,83 5:04 92 Séniors
180 LEGROS AXEL 855 40:35 11,82 5:04 8 Espoirs Garçons
181 DARRAS LAURENT 198 40:41 11,80 5:05 93 Séniors
182 COOSEMANS ROMUALD 842 40:42 11,79 5:05 94 Séniors
183 GILET MAURICE 811 40:44 11,78 5:05 8 Vétérans 3
184 DETHIER JEAN FRANCOIS 230 40:45 11,78 5:05 95 Séniors
185 CULOT CHRISTIAN 189 40:47 11,77 5:05 43 Vétérans 1
186 MOXHET NICOLAS 510 40:53 11,74 5:06 9 Vétérans 3
187 DIET FABRICE 824 40:57 11,72 5:07 44 Vétérans 1
188 FORCOURT PATRICK 919 40:58 11,71 5:07 21 Vétérans 2
189 MAURO CALOGERO 825 41:03 11,69 5:07 1 Vétérans 4
190 THIELEN ALAIN 630 41:05 11,68 5:08 45 Vétérans 1
191 KONINGS NATHALIE 526 41:08 11,67 5:08 3 Ainées 2
192 BECKERS PATRICK 66 41:10 11,66 5:08 46 Vétérans 1
193 DISTEFANO GIUSEPPE 851 41:13 11,65 5:09 96 Séniors
194 WEUSTEN CEDRIC 778 41:14 11,64 5:09 97 Séniors
195 RENNOTTE RAPHAEL 715 41:15 11,63 5:09 98 Séniors
196 ORTIZ MIGUEL 677 41:19 11,61 5:09 99 Séniors
197 DONNEAU BENOIT 311 41:20 11,61 5:10 100 Séniors
198 PLUNUS SONIA 545 41:22 11,60 5:10 1 Ainées 3
199 PLUNUS ALAIN 546 41:23 11,60 5:10 22 Vétérans 2
200 BADENBERG BERNARD 53 41:27 11,58 5:10 47 Vétérans 1
201 CANISIUS OLIVIER 974 41:31 11,56 5:11 48 Vétérans 1
202 CHEBIL RAMI 139 41:34 11,55 5:11 101 Séniors
203 DE MARCO ERIC 205 41:35 11,54 5:11 49 Vétérans 1
204 RUSSI GAUTHIER 844 41:37 11,53 5:12 102 Séniors
205 GOOR SYLVIANE 389 41:41 11,51 5:12 5 Ainées 1
206 JAMAR JULIEN 380 41:42 11,51 5:12 103 Séniors
207 FRANCOIS JORDAN 890 41:43 11,50 5:12 104 Séniors
208 DEVLEESHOUWER CHRISTOPHE 802 41:45 11,50 5:13 50 Vétérans 1
209 MEYS BERNARD 497 41:46 11,49 5:13 51 Vétérans 1
210 SNYDERS ARTHUR 837 41:48 11,48 5:13 105 Séniors
211 WERGIFOSSE JACKY 822 41:49 11,48 5:13 10 Vétérans 3
212 DEWIL JEAN 931 41:54 11,46 5:14 23 Vétérans 2
213 WINTGENS SOPHIE 691 41:55 11,45 5:14 5 Dames
214 STAINIER ERIC 991 42:01 11,42 5:15 24 Vétérans 2
215 VAN HEUSDEN GEOFFREY 790 42:02 11,42 5:15 106 Séniors
216 SECLI MAX 744 42:04 11,41 5:15 107 Séniors
217 BALTUS JOSE 58 42:05 11,40 5:15 11 Vétérans 3
218 DETHIER DANIEL 823 42:07 11,39 5:15 25 Vétérans 2
219 BELLEFLAMME SERGE 915 42:11 11,38 5:16 26 Vétérans 2
220 BERTRAND PATRICK 987 42:17 11,35 5:17 52 Vétérans 1
221 WILKET MICHEL 781 42:21 11,33 5:17 53 Vétérans 1
222 HENROTTE THIERRY 959 42:23 11,32 5:17 54 Vétérans 1
223 RENAERS STEPHANE 562 42:26 11,31 5:18 55 Vétérans 1
224 GEORGES MICHAEL 362 42:35 11,27 5:19 108 Séniors
225 GIUST OLIVIER 378 42:40 11,25 5:20 109 Séniors
226 LECHANTEUR ADRIEN 929 42:45 11,23 5:20 110 Séniors
227 MOSSOUX PHILIPPE 508 42:47 11,22 5:20 27 Vétérans 2
228 RAEVEN JULIEN 970 42:52 11,19 5:21 111 Séniors
229 LINCE GUY 452 42:55 11,18 5:21 28 Vétérans 2
230 DENGIS KEVIN 977 43:02 11,15 5:22 112 Séniors
231 BERTRANG JULIEN 79 43:05 11,14 5:23 12 Vétérans 3
232 MOOR CLAUDINE 917 43:06 11,13 5:23 6 Dames
233 DELCOUR SYLVIE 958 43:09 11,12 5:23 6 Ainées 1
234 JEROME STEPHANE 17 43:10 11,12 5:23 56 Vétérans 1
235 LEROY CAROL 803 43:12 11,11 5:24 4 Ainées 2
236 VOSS MURIEL 672 43:15 11,10 5:24 7 Ainées 1
237 MAGNETTE YVES 470 43:18 11,08 5:24 29 Vétérans 2
238 DALLA CORTE LUDOVIC 193 43:20 11,07 5:25 113 Séniors
239 MEYERS LUC 906 43:22 11,07 5:25 57 Vétérans 1
240 BRAGARD LAURA 965 43:34 11,01 5:26 7 Dames
241 GIERKENS PATRICK 838 43:38 11,00 5:27 114 Séniors
242 WINANDY MARGAUX 951 43:40 10,99 5:27 2 Espoirs Filles
243 BUTZ PIERRETTE 124 43:43 10,98 5:27 5 Ainées 2
244 HEINS SEBASTIEN 928 43:46 10,97 5:28 115 Séniors
245 HEINS FREDERIC 948 43:47 10,96 5:28 116 Séniors
246 PONSARD GUY 551 43:48 10,96 5:28 30 Vétérans 2
247 DE LEO PASCAL 30 43:49 10,95 5:28 13 Vétérans 3
248 ANGENOT NATHAN 45 43:50 10,95 5:28 117 Séniors
249 WEBER GERTY 683 43:53 10,94 5:29 2 Ainées 3
250 GILLESSEN DAVID 317 43:55 10,93 5:29 58 Vétérans 1
251 GABRIEL JULIEN 937 43:57 10,92 5:29 9 Espoirs Garçons
252 JENNEN YVES 493 43:58 10,91 5:29 118 Séniors
253 LELOUP DOMINIQUE 925 44:09 10,87 5:31 6 Ainées 2
254 ISERENTANT CARINE 483 44:13 10,85 5:31 7 Ainées 2
255 ROUFOSSE UGO 34 44:20 10,83 5:32 59 Vétérans 1
256 PHILIPPE AUDREY 693 44:28 10,79 5:33 8 Dames
257 FETTWEIS THIERRY 281 44:35 10,76 5:34 31 Vétérans 2
258 CARCILLO CHRISTOPHE 143 44:40 10,74 5:35 119 Séniors
259 LAHAYE YVAN 412 44:47 10,72 5:35 32 Vétérans 2
260 ABAD LAMAS PATRICIA 37 44:48 10,71 5:36 8 Ainées 2
261 DELEUZE JEAN-LUC 229 44:50 10,71 5:36 33 Vétérans 2
262 STEINWEG DIDIER 963 44:51 10,70 5:36 60 Vétérans 1
263 CUPERS EVELYNE 191 44:58 10,67 5:37 8 Ainées 1
264 TASSET CHRISTOPHE 625 44:59 10,67 5:37 120 Séniors
265 COLSON GEOFFREY 173 45:01 10,66 5:37 121 Séniors
266 PROVE SAM 876 45:08 10,63 5:38 10 Espoirs Garçons
267 MARECHAL NICOLAS 820 45:09 10,63 5:38 11 Espoirs Garçons
268 MERCENIER JEAN-LUC 496 45:10 10,62 5:38 61 Vétérans 1
269 DUMOULIN JEAN-LUC 248 45:14 10,61 5:39 62 Vétérans 1
270 COX JONATHAN 872 45:16 10,60 5:39 122 Séniors
271 RUIZ SABRINA 729 45:18 10,60 5:39 9 Dames
272 BAGUETTE FRANCIS 54 45:19 10,59 5:39 63 Vétérans 1
273 BONIVER NANCY 31 45:20 10,58 5:40 9 Ainées 1
274 LEJEUNE DAVID 553 45:23 10,57 5:40 64 Vétérans 1
275 ROOMANS BENOIT 834 45:27 10,56 5:40 123 Séniors
276 DEVIVIER MARC 295 45:29 10,55 5:41 65 Vétérans 1
277 CASTELLANO JOSE 924 45:30 10,55 5:41 66 Vétérans 1
278 BASTIN PAUL 61 45:45 10,49 5:43 14 Vétérans 3
279 PAILE SYLVAIN 821 45:46 10,49 5:43 124 Séniors
280 CRASSON LAURENT 183 45:49 10,48 5:43 125 Séniors
281 LHOEST MAXIME 950 45:57 10,44 5:44 12 Espoirs Garçons
282 RENARD LAURENCE 892 45:58 10,44 5:44 10 Ainées 1
283 SOMJA PHILIPPE 912 46:00 10,43 5:45 34 Vétérans 2
284 ERNEST BERT 910 46:04 10,42 5:45 35 Vétérans 2
285 POTTIER LAURA 941 46:07 10,41 5:45 3 Espoirs Filles
286 WEBER GILBERTE 682 46:14 10,38 5:46 3 Ainées 3
287 MARCOTTE DOMINIQUE 478 46:20 10,36 5:47 11 Ainées 1
288 LORQUET SYLVIE 741 46:21 10,35 5:47 9 Ainées 2
289 CAPIER JEAN-MARIE 197 46:23 10,35 5:47 15 Vétérans 3
290 JONLET LIONEL 13 46:24 10,34 5:48 126 Séniors
291 LORQUET JEAN - MARC 10 46:25 10,34 5:48 36 Vétérans 2
292 BERTRAND DOMINIQUE 517 46:26 10,33 5:48 37 Vétérans 2
293 CORMAN JEAN FRANCOIS 949 46:28 10,33 5:48 127 Séniors
294 VANDEGAAR TONY 655 46:30 10,32 5:48 16 Vétérans 3
295 NULENS CHRISTIAN 946 46:44 10,27 5:50 67 Vétérans 1
296 CITRON ANTHONY 911 46:46 10,26 5:50 128 Séniors
297 PIEROT GUY 810 46:47 10,26 5:50 17 Vétérans 3
298 DARDENNE THIBAUT 973 46:51 10,24 5:51 129 Séniors
299 ETIENNE MAXIME 975 46:53 10,24 5:51 130 Séniors
300 GENOT OLIVIER 835 46:55 10,23 5:51 68 Vétérans 1
301 FUDVOYE THIBAUT 972 46:57 10,22 5:52 131 Séniors
302 SPEE VERO 907 46:58 10,22 5:52 12 Ainées 1
303 DAMOISEAU CECILE 864 47:02 10,20 5:52 13 Ainées 1
304 MAJERI SOUNDA 862 47:03 10,20 5:52 14 Ainées 1
305 DERKENNE XAVIER 955 47:06 10,19 5:53 132 Séniors
306 VANAUBEL MARILYN 765 47:12 10,17 5:54 10 Dames
307 VANAUBEL AMANDINE 764 47:13 10,16 5:54 11 Dames
308 LAMBERT HENRI 533 47:25 10,12 5:55 69 Vétérans 1
309 WILKET NATACHA 943 47:28 10,11 5:56 15 Ainées 1
310 THIELEN SYLVIE 988 47:30 10,10 5:56 16 Ainées 1
311 FINCK ALEXANDRE 921 47:32 10,10 5:56 13 Espoirs Garçons
312 DEMONCEAU VERONIQUE 969 47:34 10,09 5:56 10 Ainées 2
313 FLAS EVELYNE 287 47:43 10,06 5:57 12 Dames
314 VERLAINE VERONIQUE 884 47:54 10,02 5:59 11 Ainées 2
315 RAEVEN GERALDINE 895 47:59 10,00 5:59 13 Dames
316 BRAGARD EDMEE 106 48:01 9,99 6:00 12 Ainées 2
317 DODEMONT BRIGITTE 804 48:03 9,99 6:00 13 Ainées 2
318 ZLATICS ANUSKA 787 48:06 9,98 6:00 17 Ainées 1
319 PAQUES NATHALIE 831 48:09 9,97 6:01 18 Ainées 1
320 SNOECK LUDOVIC 858 48:12 9,96 6:01 133 Séniors
321 PLUIMERS CHRISTIAN 815 48:29 9,90 6:03 18 Vétérans 3
322 JOIRIS MICHEL 932 48:32 9,89 6:04 19 Vétérans 3
323 DELAIRESSE GILBERT 225 48:33 9,88 6:04 2 Vétérans 4
324 PROVE MICHAEL 877 48:50 9,83 6:06 134 Séniors
325 SALVE ARIANNE 979 48:52 9,82 6:06 14 Dames
326 SCHONMACKER BERNARD 962 48:56 9,81 6:07 135 Séniors
327 THIELEN THOMAS 846 48:57 9,80 6:07 14 Espoirs Garçons
328 WILIQUET CLAUDINE 888 48:59 9,80 6:07 14 Ainées 2
329 DORMAL CATHERINE 320 49:01 9,79 6:07 19 Ainées 1
330 NARDOZ RICHARD 901 49:02 9,79 6:07 70 Vétérans 1
331 HERTAY FRANCOISE 451 49:03 9,78 6:07 20 Ainées 1
332 DIDDEREN HUGUETTE 839 49:05 9,78 6:08 15 Ainées 2
333 MILER PASCAL 887 49:14 9,75 6:09 71 Vétérans 1
334 SOUGNEZ STEPHANIE 869 49:17 9,74 6:09 15 Dames
335 THIELEN JOSE 845 49:25 9,71 6:10 136 Séniors
336 BASTIN AURELIE 63 49:26 9,71 6:10 16 Dames
337 WARICHET LUC 978 49:28 9,70 6:11 137 Séniors
338 LEGRAND ANDRE 883 49:29 9,70 6:11 72 Vétérans 1
339 COLIN FREDERIC 166 49:31 9,69 6:11 73 Vétérans 1
340 CHARLIER CHLOE 898 49:32 9,69 6:11 4 Espoirs Filles
341 BAMPS MAGALI 848 49:34 9,68 6:11 21 Ainées 1
342 URBAIN VIRGINIE 986 49:38 9,67 6:12 22 Ainées 1
343 BLONDIAU TCHOUN 91 49:40 9,66 6:12 17 Dames
344 SIMONIS MATHIEU 608 49:42 9,66 6:12 138 Séniors
345 DENOEL PHILIPPE 829 49:43 9,65 6:12 74 Vétérans 1
346 ROOSEN EMILIA 868 49:51 9,63 6:13 16 Ainées 2
347 DUYSENS MARIELLE 882 49:55 9,61 6:14 18 Dames
348 DENIS MADELINE 216 50:00 9,60 6:15 19 Dames
349 PIRET BRUNO 926 50:16 9,55 6:17 139 Séniors
350 NAHON SYLVIE 516 50:30 9,50 6:18 17 Ainées 2
351 HUMBLET JACQUES 832 50:38 9,48 6:19 38 Vétérans 2
352 LEMOINE ALINE 563 51:15 9,37 6:24 23 Ainées 1
353 FRANSSEN HELENE 983 51:44 9,28 6:28 20 Dames
354 GRENSON VERONIQUE 857 51:50 9,26 6:28 18 Ainées 2
355 FRYNS GILBERT 299 51:53 9,25 6:29 20 Vétérans 3
356 SIMONS ISABELLE 960 51:54 9,25 6:29 24 Ainées 1
357 DENOEL ESTELLE 836 52:04 9,22 6:30 25 Ainées 1
358 DERICHS PATRICIA 222 52:06 9,21 6:30 19 Ainées 2
359 LEGROS NOEMIE 856 52:19 9,17 6:32 5 Espoirs Filles
360 LEGROS FRANCIS 431 52:21 9,17 6:32 75 Vétérans 1
361 LARMINIER ANNE-MARIE 421 52:26 9,15 6:33 4 Ainées 3
362 GIELEN MURIELLE 863 52:35 9,13 6:34 20 Ainées 2
363 DESMET ANTONIN 873 52:37 9,12 6:34 140 Séniors
364 DELCOURT CERES 874 52:38 9,12 6:34 21 Dames
365 GOD JULIE 814 52:41 9,11 6:35 22 Dames
366 TILMANT RAPHAEL 760 52:44 9,10 6:35 76 Vétérans 1
367 BONBOIRE DAVID 92 52:45 9,10 6:35 141 Séniors
368 CIARNIELLO FABIAN 866 52:47 9,09 6:35 142 Séniors
369 LOGNAY LAURENT 867 52:50 9,08 6:36 143 Séniors
370 MAQUINAY FELICIEN 475 53:00 9,06 6:37 39 Vétérans 2
371 BROUWERS VERONIQUE 914 53:24 8,99 6:40 21 Ainées 2
372 WOUTERS CATHERINE 859 53:26 8,98 6:40 22 Ainées 2
373 BRANDT ARLETTE 112 53:34 8,96 6:41 5 Ainées 3
374 GABRIEL DELPHINE 939 53:40 8,94 6:42 6 Espoirs Filles
375 BASTIN FLORINE 65 53:44 8,93 6:43 23 Dames
376 VERBERT CAMILLE 853 53:48 8,92 6:43 7 Espoirs Filles
377 LINOTTE MARINE 854 53:51 8,91 6:43 24 Dames
378 DIDRICHT VIRGINIE 913 54:13 8,85 6:46 26 Ainées 1
379 LOVENBERG GUY 465 54:17 8,84 6:47 40 Vétérans 2
380 ARTUS CARINE 916 54:53 8,75 6:51 25 Dames
381 POTTIER CHARLOTTE 940 54:58 8,73 6:52 8 Espoirs Filles
382 GABRIEL VINCENT 938 55:02 8,72 6:52 77 Vétérans 1
383 SCHMITS EMILIE 736 55:31 8,64 6:56 26 Dames
384 SARLET LAETITIA 896 56:04 8,56 7:00 27 Dames
385 CHAVET MATHIEU 897 56:06 8,55 7:00 144 Séniors
386 LIEGEOIS CELINE 980 56:12 8,54 7:01 28 Dames
387 DETHIER MATHILDE 886 56:37 8,48 7:04 23 Ainées 2
388 GROSJEAN MARIANNE 982 57:34 8,34 7:11 24 Ainées 2
389 WENRIL LAURENT 971 57:51 8,30 7:13 145 Séniors
390 POUPIER PASCAL 989 58:05 8,26 7:15 78 Vétérans 1
391 VAZZA CELINA 990 58:06 8,26 7:15 27 Ainées 1
392 WATHELET MARIE 918 58:08 8,26 7:16 29 Dames
393 MONTIGNY ISABELLE 902 59:22 8,08 7:25 28 Ainées 1
394 CHEFNEUX LUDOVIC 151 59:26 8,08 7:25 146 Séniors
395 LESEUNE ZABOU 935 1:00:57 7,87 7:37 25 Ainées 2
396 GERON CHRISTINE 934 1:00:59 7,87 7:37 29 Ainées 1
397 VERHASSELT CAROLE 899 1:04:48 7,41 8:06 9 Espoirs Filles
398 NOTTURNI LISA 903 1:04:51 7,40 8:06 30 Dames
399 ABINET FABIENNE 878 1:11:21 6,73 8:55 26 Ainées 2
400 ABINET GERMAIN 879 1:11:24 6,72 8:55 147 Séniors
401 ABINET JEAN PAUL 880 1:11:27 6,72 8:55 41 Vétérans 2